Rechercher aéroport 
image banner adimage banner adimage banner ad
image banner ad

44CL - Balsdon

Situé à Grimes, United States

ICAO - 44CL, IATA -

Données fournies par Airmate  

Information générale

Coordonnées: N39°2'52" W121°57'1"
Élévation : 35 feet MSL.
 
Voir autres Aéroports à California

Données opérationnelles

Special qualification required
Heure actuelle UTC:
Heure actuelle locale:
Météo à : KMYV - Yuba County ( 33 km )
METAR: KMYV 291453Z AUTO 00000KT 10SM CLR 23/13 A2991 RMK AO2 SLP131 T02280128 53011
Voir NOTAMs / SUP AIP / TFR affectant cet aéroport [VIEW]
Fréquences de communication: [VIEW]

Pistes:

Identifiant RWYQFULongueur (ft)Largeur (ft)SurfaceLDA (ft)
12232330ASPH
30232330ASPH

Coordonnées de l'aéroport

Adresse: Grimes United States

Vue satellite de 44CL